createdAt,value
2023-01-13T00:00:33.091Z,100.00
2023-01-13T00:02:59.674Z,100.00
2023-01-13T00:05:26.738Z,100.00
2023-01-13T00:07:53.292Z,100.00
2023-01-13T00:10:19.940Z,100.00
2023-01-13T00:12:46.469Z,100.00
2023-01-13T00:15:13.458Z,100.00
2023-01-13T00:17:40.045Z,100.00
2023-01-13T00:20:07.118Z,100.00
2023-01-13T00:22:36.621Z,100.00
2023-01-13T00:25:04.377Z,100.00
2023-01-13T00:27:31.726Z,100.00
2023-01-13T00:29:58.338Z,100.00
2023-01-13T00:32:25.139Z,100.00
2023-01-13T00:34:51.636Z,100.00
2023-01-13T00:37:18.097Z,100.00
2023-01-13T00:39:45.724Z,100.00
2023-01-13T00:42:31.123Z,100.00
2023-01-13T00:44:57.593Z,100.00
2023-01-13T00:47:24.098Z,100.00
2023-01-13T00:49:50.560Z,100.00
2023-01-13T00:52:16.987Z,100.00
2023-01-13T00:54:43.573Z,100.00
2023-01-13T00:57:10.060Z,100.00
2023-01-13T00:59:36.701Z,100.00
2023-01-13T01:02:03.294Z,100.00
2023-01-13T01:04:32.516Z,100.00
2023-01-13T01:06:59.101Z,100.00
2023-01-13T01:09:32.649Z,100.00
2023-01-13T01:11:59.932Z,100.00
2023-01-13T01:14:27.233Z,100.00
2023-01-13T01:16:54.452Z,100.00
2023-01-13T01:19:20.990Z,100.00
2023-01-13T01:21:47.610Z,100.00
2023-01-13T01:24:16.564Z,100.00
2023-01-13T01:26:43.179Z,100.00
2023-01-13T01:29:11.889Z,100.00
2023-01-13T01:31:38.405Z,100.00
2023-01-13T01:34:04.895Z,100.00
2023-01-13T01:36:35.054Z,100.00
2023-01-13T01:39:01.865Z,100.00
2023-01-13T01:41:29.950Z,100.00
2023-01-13T01:44:03.752Z,100.00
2023-01-13T01:46:35.588Z,100.00
2023-01-13T01:49:21.024Z,100.00
2023-01-13T01:52:10.686Z,100.00
2023-01-13T01:54:43.997Z,100.00
2023-01-13T01:57:11.347Z,100.00
2023-01-13T01:59:38.622Z,100.00
2023-01-13T02:02:05.554Z,100.00
2023-01-13T02:04:34.619Z,100.00
2023-01-13T02:07:02.288Z,100.00
2023-01-13T02:09:29.009Z,100.00
2023-01-13T02:12:14.232Z,100.00
2023-01-13T02:14:41.442Z,100.00
2023-01-13T02:17:08.109Z,100.00
2023-01-13T02:19:53.497Z,100.00
2023-01-13T02:22:23.035Z,100.00
2023-01-13T02:25:15.757Z,100.00
2023-01-13T02:27:45.232Z,100.00
2023-01-13T02:30:33.765Z,100.00
2023-01-13T02:33:06.049Z,100.00
2023-01-13T02:35:38.505Z,100.00
2023-01-13T02:38:05.915Z,100.00
2023-01-13T02:40:36.253Z,100.00
2023-01-13T02:43:31.794Z,100.00
2023-01-13T02:46:22.106Z,100.00
2023-01-13T02:48:51.846Z,100.00
2023-01-13T02:51:21.324Z,100.00
2023-01-13T02:53:56.840Z,100.00
2023-01-13T02:56:24.132Z,100.00
2023-01-13T02:58:51.315Z,100.00
2023-01-13T03:01:17.965Z,100.00
2023-01-13T03:03:44.667Z,100.00
2023-01-13T03:06:11.089Z,100.00
2023-01-13T03:08:46.721Z,100.00
2023-01-13T03:11:14.502Z,100.00
2023-01-13T03:13:43.940Z,100.00
2023-01-13T03:16:19.558Z,100.00
2023-01-13T03:18:52.683Z,100.00
2023-01-13T03:21:22.366Z,100.00
2023-01-13T03:23:57.819Z,100.00
2023-01-13T03:26:27.122Z,100.00
2023-01-13T03:28:56.424Z,100.00
2023-01-13T03:31:26.608Z,100.00
2023-01-13T03:33:58.891Z,100.00
2023-01-13T03:36:28.043Z,100.00
2023-01-13T03:38:57.830Z,100.00
2023-01-13T03:41:29.841Z,100.00
2023-01-13T03:44:22.410Z,100.00
2023-01-13T03:46:51.678Z,100.00
2023-01-13T03:49:20.633Z,100.00
2023-01-13T03:51:49.686Z,100.00
2023-01-13T03:54:17.424Z,100.00
2023-01-13T03:56:49.325Z,100.00
2023-01-13T03:59:24.171Z,100.00
2023-01-13T04:01:50.816Z,100.00
2023-01-13T04:04:21.350Z,100.00
2023-01-13T04:06:53.011Z,100.00
2023-01-13T04:09:31.734Z,100.00
2023-01-13T04:12:11.407Z,100.00
2023-01-13T04:14:38.090Z,100.00
2023-01-13T04:17:05.240Z,100.00
2023-01-13T04:19:33.144Z,100.00
2023-01-13T04:22:00.943Z,100.00
2023-01-13T04:24:27.436Z,100.00
2023-01-13T04:26:54.063Z,100.00
2023-01-13T04:29:23.585Z,100.00
2023-01-13T04:31:50.076Z,100.00
2023-01-13T04:34:18.719Z,100.00
2023-01-13T04:36:45.260Z,100.00
2023-01-13T04:39:11.768Z,100.00
2023-01-13T04:41:56.947Z,100.00
2023-01-13T04:44:23.418Z,100.00
2023-01-13T04:46:49.895Z,100.00
2023-01-13T04:49:16.464Z,100.00
2023-01-13T04:51:42.919Z,100.00
2023-01-13T04:54:11.955Z,100.00
2023-01-13T04:56:42.646Z,100.00
2023-01-13T04:59:15.410Z,100.00
2023-01-13T05:01:45.212Z,100.00
2023-01-13T05:04:11.974Z,100.00
2023-01-13T05:06:40.652Z,100.00
2023-01-13T05:09:09.539Z,100.00
2023-01-13T05:11:54.435Z,100.00
2023-01-13T05:14:40.646Z,100.00
2023-01-13T05:17:10.109Z,100.00
2023-01-13T05:19:40.781Z,100.00
2023-01-13T05:22:25.999Z,100.00
2023-01-13T05:25:11.004Z,100.00
2023-01-13T05:27:37.446Z,100.00
2023-01-13T05:30:04.424Z,100.00
2023-01-13T05:32:31.131Z,100.00
2023-01-13T05:34:57.653Z,100.00
2023-01-13T05:37:24.404Z,100.00
2023-01-13T05:40:09.561Z,100.00
2023-01-13T05:42:54.560Z,100.00
2023-01-13T05:45:21.407Z,100.00
2023-01-13T05:47:47.929Z,100.00
2023-01-13T05:50:14.521Z,100.00
2023-01-13T05:52:41.064Z,100.00
2023-01-13T05:55:07.701Z,100.00
2023-01-13T05:57:34.140Z,100.00
2023-01-13T06:00:00.693Z,100.00
2023-01-13T06:02:27.287Z,100.00
2023-01-13T06:04:53.811Z,100.00
2023-01-13T06:07:22.432Z,100.00
2023-01-13T06:09:48.872Z,100.00
2023-01-13T06:12:15.325Z,100.00
2023-01-13T06:14:41.790Z,100.00
2023-01-13T06:17:12.076Z,100.00
2023-01-13T06:19:38.860Z,100.00
2023-01-13T06:22:08.361Z,100.00
2023-01-13T06:24:34.901Z,100.00
2023-01-13T06:27:01.363Z,100.00
2023-01-13T06:29:27.889Z,100.00
2023-01-13T06:31:54.511Z,100.00
2023-01-13T06:34:21.041Z,100.00
2023-01-13T06:36:50.704Z,100.00
2023-01-13T06:39:19.024Z,100.00
2023-01-13T06:42:06.714Z,100.00
2023-01-13T06:44:33.264Z,100.00
2023-01-13T06:46:59.962Z,100.00
2023-01-13T06:49:26.556Z,100.00
2023-01-13T06:51:53.021Z,100.00
2023-01-13T06:54:19.574Z,100.00
2023-01-13T06:56:46.082Z,100.00
2023-01-13T06:59:12.572Z,100.00
2023-01-13T07:01:39.102Z,100.00
2023-01-13T07:04:05.658Z,100.00
2023-01-13T07:06:32.445Z,100.00
2023-01-13T07:09:01.112Z,100.00
2023-01-13T07:11:28.853Z,100.00
2023-01-13T07:14:13.794Z,100.00
2023-01-13T07:16:43.030Z,100.00
2023-01-13T07:19:09.730Z,100.00
2023-01-13T07:21:36.532Z,100.00
2023-01-13T07:24:03.257Z,100.00
2023-01-13T07:26:32.030Z,100.00
2023-01-13T07:29:00.969Z,100.00
2023-01-13T07:31:30.005Z,100.00
2023-01-13T07:33:58.862Z,100.00
2023-01-13T07:36:27.501Z,100.00
2023-01-13T07:38:57.187Z,100.00
2023-01-13T07:41:42.883Z,100.00
2023-01-13T07:44:11.095Z,100.00
2023-01-13T07:46:38.733Z,100.00
2023-01-13T07:49:05.740Z,100.00
2023-01-13T07:51:35.299Z,100.00
2023-01-13T07:54:01.803Z,100.00
2023-01-13T07:56:28.397Z,100.00
2023-01-13T07:58:54.971Z,100.00
2023-01-13T08:01:22.635Z,100.00
2023-01-13T08:03:49.132Z,100.00
2023-01-13T08:06:15.675Z,100.00
2023-01-13T08:08:42.111Z,100.00
2023-01-13T08:11:08.916Z,100.00
2023-01-13T08:13:35.431Z,100.00
2023-01-13T08:16:12.205Z,100.00
2023-01-13T08:18:39.132Z,100.00
2023-01-13T08:21:07.880Z,100.00
2023-01-13T08:23:34.826Z,100.00
2023-01-13T08:26:02.757Z,100.00
2023-01-13T08:28:31.307Z,100.00
2023-01-13T08:31:08.155Z,100.00
2023-01-13T08:33:35.190Z,100.00
2023-01-13T08:36:11.611Z,100.00
2023-01-13T08:38:41.139Z,100.00
2023-01-13T08:41:18.137Z,100.00
2023-01-13T08:43:44.674Z,100.00
2023-01-13T08:46:14.443Z,100.00
2023-01-13T08:48:41.121Z,100.00
2023-01-13T08:51:09.039Z,100.00
2023-01-13T08:53:38.312Z,100.00
2023-01-13T08:56:11.781Z,100.00
2023-01-13T08:58:38.654Z,100.00
2023-01-13T09:01:05.994Z,100.00
2023-01-13T09:03:32.685Z,100.00
2023-01-13T09:05:59.365Z,100.00
2023-01-13T09:08:25.854Z,100.00
2023-01-13T09:10:52.412Z,100.00
2023-01-13T09:13:20.408Z,100.00
2023-01-13T09:15:47.369Z,100.00
2023-01-13T09:18:13.969Z,100.00
2023-01-13T09:20:40.677Z,100.00
2023-01-13T09:23:10.045Z,100.00
2023-01-13T09:25:37.043Z,100.00
2023-01-13T09:28:05.019Z,100.00
2023-01-13T09:30:31.897Z,100.00
2023-01-13T09:33:19.131Z,100.00
2023-01-13T09:35:45.603Z,100.00
2023-01-13T09:38:12.024Z,100.00
2023-01-13T09:40:41.316Z,100.00
2023-01-13T09:43:36.775Z,100.00
2023-01-13T09:46:27.271Z,100.00
2023-01-13T09:48:54.340Z,100.00
2023-01-13T09:51:28.252Z,100.00
2023-01-13T09:53:56.908Z,100.00
2023-01-13T09:56:24.446Z,100.00
2023-01-13T09:58:51.023Z,100.00
2023-01-13T10:01:40.879Z,100.00
2023-01-13T10:04:11.650Z,100.00
2023-01-13T10:06:39.423Z,100.00
2023-01-13T10:09:06.243Z,100.00
2023-01-13T10:11:53.128Z,100.00
2023-01-13T10:14:33.731Z,100.00
2023-01-13T10:17:19.002Z,100.00
2023-01-13T10:20:16.916Z,100.00
2023-01-13T10:23:04.218Z,100.00
2023-01-13T10:25:42.625Z,100.00
2023-01-13T10:28:11.813Z,100.00
2023-01-13T10:30:40.309Z,100.00
2023-01-13T10:33:06.843Z,100.00
2023-01-13T10:35:52.133Z,100.00
2023-01-13T10:38:28.444Z,100.00
2023-01-13T10:40:56.457Z,100.00
2023-01-13T10:43:23.357Z,100.00
2023-01-13T10:46:13.245Z,100.00
2023-01-13T10:48:41.724Z,100.00
2023-01-13T10:51:18.093Z,100.00
2023-01-13T10:53:46.497Z,100.00
2023-01-13T10:56:19.785Z,100.00
2023-01-13T10:58:46.636Z,100.00
2023-01-13T11:01:21.249Z,100.00
2023-01-13T11:03:48.356Z,100.00
2023-01-13T11:06:25.732Z,100.00
2023-01-13T11:08:55.327Z,100.00
2023-01-13T11:11:42.292Z,100.00
2023-01-13T11:14:33.160Z,98.44
2023-01-13T11:17:26.283Z,95.57
2023-01-13T11:20:05.662Z,93.81
2023-01-13T11:22:34.092Z,93.77
2023-01-13T11:25:01.862Z,89.54
2023-01-13T11:27:37.217Z,92.32
2023-01-13T11:30:10.061Z,87.16
2023-01-13T11:32:48.881Z,89.40
2023-01-13T11:35:19.440Z,89.81
2023-01-13T11:37:50.380Z,88.39
2023-01-13T11:40:21.427Z,88.79
2023-01-13T11:43:06.741Z,88.72
2023-01-13T11:45:49.514Z,86.82
2023-01-13T11:48:17.798Z,86.39
2023-01-13T11:50:57.175Z,84.19
2023-01-13T11:53:42.373Z,85.07
2023-01-13T11:56:08.871Z,83.08
2023-01-13T11:58:59.485Z,82.41
2023-01-13T12:01:32.468Z,83.48
2023-01-13T12:04:25.326Z,81.74
2023-01-13T12:07:13.059Z,84.19
2023-01-13T12:09:47.795Z,81.79
2023-01-13T12:12:32.968Z,81.47
2023-01-13T12:15:18.368Z,81.67
2023-01-13T12:17:52.602Z,82.10
2023-01-13T12:20:25.587Z,81.98
2023-01-13T12:22:53.915Z,80.88
2023-01-13T12:25:23.358Z,81.48
2023-01-13T12:27:55.342Z,80.34
2023-01-13T12:30:40.472Z,80.36
2023-01-13T12:33:16.322Z,79.65
2023-01-13T12:36:20.100Z,78.51
2023-01-13T12:38:49.073Z,77.27
2023-01-13T12:41:18.939Z,79.12
2023-01-13T12:44:06.557Z,77.54
2023-01-13T12:46:33.960Z,79.20
2023-01-13T12:49:04.628Z,80.57
2023-01-13T12:51:34.237Z,80.40
2023-01-13T12:54:01.446Z,82.10
2023-01-13T12:56:37.025Z,82.42
2023-01-13T12:59:19.137Z,79.19
2023-01-13T13:01:47.138Z,79.55
2023-01-13T13:04:21.828Z,80.32
2023-01-13T13:06:53.856Z,81.38
2023-01-13T13:09:32.699Z,81.11
2023-01-13T13:12:42.023Z,82.58
2023-01-13T13:15:22.845Z,82.69
2023-01-13T13:18:01.823Z,84.54
2023-01-13T13:20:47.309Z,83.94
2023-01-13T13:23:32.454Z,84.88
2023-01-13T13:25:59.325Z,82.99
2023-01-13T13:28:25.995Z,85.20
2023-01-13T13:31:07.336Z,84.99
2023-01-13T13:33:39.242Z,85.80
2023-01-13T13:36:32.434Z,83.29
2023-01-13T13:39:17.853Z,83.62
2023-01-13T13:42:05.626Z,83.57
2023-01-13T13:44:55.003Z,84.28
2023-01-13T13:47:21.599Z,84.36
2023-01-13T13:49:52.568Z,85.64
2023-01-13T13:52:33.709Z,85.87
2023-01-13T13:55:05.838Z,83.14
2023-01-13T13:57:39.540Z,83.25
2023-01-13T14:00:11.490Z,82.74
2023-01-13T14:02:38.123Z,82.46
2023-01-13T14:05:09.029Z,82.32
2023-01-13T14:07:42.399Z,81.74
2023-01-13T14:10:14.406Z,82.86
2023-01-13T14:12:41.589Z,81.46
2023-01-13T14:15:27.544Z,81.59
2023-01-13T14:17:54.292Z,82.61
2023-01-13T14:20:22.174Z,79.60
2023-01-13T14:22:49.614Z,81.00
2023-01-13T14:25:29.664Z,82.50
2023-01-13T14:27:57.177Z,79.68
2023-01-13T14:30:25.927Z,81.15
2023-01-13T14:32:52.979Z,78.93
2023-01-13T14:35:19.869Z,80.21
2023-01-13T14:37:48.976Z,78.32
2023-01-13T14:40:36.144Z,77.83
2023-01-13T14:43:03.882Z,78.85
2023-01-13T14:45:33.761Z,78.67
2023-01-13T14:48:01.384Z,80.49
2023-01-13T14:50:32.817Z,79.17
2023-01-13T14:53:00.944Z,80.97
2023-01-13T14:55:36.838Z,80.33
2023-01-13T14:58:21.734Z,81.95
2023-01-13T15:00:49.477Z,82.44
2023-01-13T15:03:16.970Z,83.29
2023-01-13T15:05:47.950Z,82.36
2023-01-13T15:08:14.457Z,81.20
2023-01-13T15:10:53.075Z,81.89
2023-01-13T15:13:26.247Z,82.62
2023-01-13T15:15:54.828Z,81.63
2023-01-13T15:18:24.387Z,82.26
2023-01-13T15:20:53.637Z,81.95
2023-01-13T15:23:20.707Z,82.31
2023-01-13T15:25:50.835Z,81.95
2023-01-13T15:28:19.341Z,82.21
2023-01-13T15:30:45.966Z,80.84
2023-01-13T15:33:13.086Z,81.55
2023-01-13T15:35:41.565Z,81.17
2023-01-13T15:38:16.005Z,80.79
2023-01-13T15:40:42.944Z,81.78
2023-01-13T15:43:38.237Z,81.72
2023-01-13T15:46:39.657Z,81.65
2023-01-13T15:49:12.788Z,80.71
2023-01-13T15:51:40.302Z,81.94
2023-01-13T15:54:09.949Z,80.43
2023-01-13T15:56:36.780Z,79.84
2023-01-13T15:59:04.044Z,80.87
2023-01-13T16:01:30.517Z,81.11
2023-01-13T16:03:57.045Z,79.67
2023-01-13T16:06:27.931Z,80.58
2023-01-13T16:08:54.397Z,79.72
2023-01-13T16:11:20.888Z,81.28
2023-01-13T16:13:47.386Z,81.32
2023-01-13T16:16:24.397Z,80.31
2023-01-13T16:18:51.786Z,79.61
2023-01-13T16:21:22.148Z,79.05
2023-01-13T16:23:49.459Z,79.90
2023-01-13T16:26:23.611Z,81.12
2023-01-13T16:28:51.320Z,80.07
2023-01-13T16:31:20.211Z,80.31
2023-01-13T16:33:46.791Z,82.58
2023-01-13T16:36:14.580Z,84.08
2023-01-13T16:38:41.356Z,84.27
2023-01-13T16:41:08.471Z,86.01
2023-01-13T16:43:35.552Z,88.23
2023-01-13T16:46:02.470Z,92.84
2023-01-13T16:48:29.010Z,90.90
2023-01-13T16:50:55.794Z,92.53
2023-01-13T16:53:22.485Z,91.74
2023-01-13T16:55:49.022Z,94.18
2023-01-13T16:58:17.385Z,94.17
2023-01-13T17:00:46.995Z,94.60
2023-01-13T17:03:14.143Z,94.57
2023-01-13T17:05:41.352Z,94.25
2023-01-13T17:08:10.268Z,94.69
2023-01-13T17:10:36.718Z,93.10
2023-01-13T17:13:14.732Z,93.90
2023-01-13T17:15:42.380Z,93.85
2023-01-13T17:18:09.034Z,95.53
2023-01-13T17:20:35.569Z,98.99
2023-01-13T17:23:02.046Z,99.84
2023-01-13T17:25:28.751Z,99.84
2023-01-13T17:28:10.564Z,99.60
2023-01-13T17:30:37.220Z,100.00
2023-01-13T17:33:03.765Z,100.00
2023-01-13T17:38:23.254Z,99.35
2023-01-13T17:40:53.940Z,99.15
2023-01-13T17:43:20.436Z,99.55
2023-01-13T17:45:47.106Z,98.95
2023-01-13T17:48:13.729Z,99.41
2023-01-13T17:50:40.434Z,99.61
2023-01-13T17:53:06.951Z,99.43
2023-01-13T17:55:33.406Z,99.94
2023-01-13T17:57:59.896Z,97.96
2023-01-13T18:00:26.476Z,98.95
2023-01-13T18:02:54.502Z,99.29
2023-01-13T18:05:21.069Z,96.51
2023-01-13T18:07:47.541Z,95.42
2023-01-13T18:10:14.389Z,94.87
2023-01-13T18:12:40.896Z,95.95
2023-01-13T18:15:07.743Z,93.65
2023-01-13T18:17:34.308Z,94.29
2023-01-13T18:20:19.198Z,93.70
2023-01-13T18:23:04.381Z,93.98
2023-01-13T18:25:49.365Z,92.19
2023-01-13T18:28:15.925Z,91.57
2023-01-13T18:30:42.465Z,92.27
2023-01-13T18:33:08.986Z,91.73
2023-01-13T18:35:37.984Z,93.13
2023-01-13T18:38:04.441Z,95.81
2023-01-13T18:40:31.409Z,96.08
2023-01-13T18:42:59.303Z,97.18
2023-01-13T18:45:29.164Z,97.52
2023-01-13T18:47:56.912Z,97.81
2023-01-13T18:50:23.529Z,100.00
2023-01-13T18:52:50.089Z,100.00
2023-01-13T18:55:17.222Z,100.00
2023-01-13T18:57:43.779Z,97.55
2023-01-13T19:00:12.770Z,96.97
2023-01-13T19:02:39.602Z,97.20
2023-01-13T19:05:06.513Z,95.78
2023-01-13T19:07:35.030Z,95.75
2023-01-13T19:10:04.245Z,93.64
2023-01-13T19:12:31.440Z,94.76
2023-01-13T19:14:58.628Z,95.78
2023-01-13T19:17:26.326Z,93.37
2023-01-13T19:19:54.326Z,94.73
2023-01-13T19:22:23.340Z,92.37
2023-01-13T19:24:51.050Z,93.60
2023-01-13T19:27:18.609Z,94.48
2023-01-13T19:29:48.633Z,92.50
2023-01-13T19:32:18.746Z,90.48
2023-01-13T19:34:46.814Z,92.73
2023-01-13T19:37:13.517Z,94.03
2023-01-13T19:39:39.967Z,93.07
2023-01-13T19:42:25.396Z,94.17
2023-01-13T19:45:10.675Z,93.58
2023-01-13T19:47:38.746Z,93.17
2023-01-13T19:50:07.962Z,92.92
2023-01-13T19:52:34.618Z,93.79
2023-01-13T19:55:02.134Z,93.80
2023-01-13T19:57:28.767Z,94.20
2023-01-13T19:59:55.262Z,94.08
2023-01-13T20:02:28.465Z,95.26
2023-01-13T20:04:56.123Z,94.88
2023-01-13T20:07:24.131Z,95.19
2023-01-13T20:09:51.469Z,95.03
2023-01-13T20:12:18.558Z,96.17
2023-01-13T20:14:46.475Z,95.05
2023-01-13T20:17:14.082Z,94.24
2023-01-13T20:19:41.250Z,96.40
2023-01-13T20:22:07.951Z,95.75
2023-01-13T20:24:34.861Z,95.24
2023-01-13T20:27:01.565Z,95.01
2023-01-13T20:29:28.755Z,94.53
2023-01-13T20:31:55.520Z,94.23
2023-01-13T20:34:22.052Z,93.58
2023-01-13T20:36:50.046Z,94.52
2023-01-13T20:39:17.821Z,94.06
2023-01-13T20:42:02.831Z,94.89
2023-01-13T20:44:29.743Z,94.68
2023-01-13T20:46:57.869Z,94.94
2023-01-13T20:49:25.378Z,94.71
2023-01-13T20:51:51.981Z,93.64
2023-01-13T20:54:18.785Z,94.26
2023-01-13T20:56:45.267Z,95.99
2023-01-13T20:59:12.012Z,94.38
2023-01-13T21:01:38.938Z,94.09
2023-01-13T21:04:06.912Z,96.33
2023-01-13T21:06:34.096Z,95.47
2023-01-13T21:09:00.774Z,96.16
2023-01-13T21:11:46.651Z,96.27
2023-01-13T21:14:36.253Z,97.70
2023-01-13T21:17:03.188Z,96.33
2023-01-13T21:19:29.671Z,97.25
2023-01-13T21:21:56.666Z,97.96
2023-01-13T21:24:23.860Z,97.61
2023-01-13T21:26:58.987Z,98.78
2023-01-13T21:29:25.498Z,98.42
2023-01-13T21:31:54.020Z,100.00
2023-01-13T21:34:20.553Z,99.00
2023-01-13T21:36:47.049Z,96.88
2023-01-13T21:39:15.467Z,95.98
2023-01-13T21:42:00.775Z,96.43
2023-01-13T21:44:45.830Z,97.82
2023-01-13T21:47:32.835Z,98.61
2023-01-13T21:49:59.372Z,99.67
2023-01-13T21:52:26.179Z,97.83
2023-01-13T21:55:11.187Z,98.49
2023-01-13T21:57:37.626Z,99.90
2023-01-13T22:00:05.312Z,100.00
2023-01-13T22:02:32.135Z,100.00
2023-01-13T22:04:59.678Z,100.00
2023-01-13T22:07:27.638Z,100.00
2023-01-13T22:09:54.624Z,100.00
2023-01-13T22:12:24.980Z,100.00
2023-01-13T22:14:52.175Z,100.00
2023-01-13T22:17:23.144Z,100.00
2023-01-13T22:19:52.776Z,100.00
2023-01-13T22:22:19.814Z,100.00
2023-01-13T22:24:47.427Z,100.00
2023-01-13T22:27:15.438Z,100.00
2023-01-13T22:29:42.703Z,100.00
2023-01-13T22:32:09.269Z,100.00
2023-01-13T22:34:35.812Z,100.00
2023-01-13T22:37:02.390Z,100.00
2023-01-13T22:39:29.108Z,100.00
2023-01-13T22:41:55.604Z,100.00
2023-01-13T22:44:22.104Z,100.00
2023-01-13T22:46:48.674Z,100.00
2023-01-13T22:49:15.860Z,100.00
2023-01-13T22:51:42.379Z,100.00
2023-01-13T22:54:09.636Z,100.00
2023-01-13T22:56:36.253Z,100.00
2023-01-13T22:59:03.816Z,100.00
2023-01-13T23:01:32.007Z,100.00
2023-01-13T23:03:59.050Z,100.00
2023-01-13T23:06:28.437Z,100.00
2023-01-13T23:08:55.605Z,100.00
2023-01-13T23:11:26.617Z,100.00
2023-01-13T23:13:58.514Z,100.00
2023-01-13T23:16:25.362Z,100.00
2023-01-13T23:18:51.977Z,100.00
2023-01-13T23:21:20.146Z,100.00
2023-01-13T23:23:47.006Z,100.00
2023-01-13T23:26:13.938Z,100.00
2023-01-13T23:28:40.424Z,100.00
2023-01-13T23:31:07.705Z,100.00
2023-01-13T23:33:34.641Z,100.00
2023-01-13T23:36:03.478Z,100.00
2023-01-13T23:38:30.125Z,100.00
2023-01-13T23:40:56.743Z,100.00
2023-01-13T23:43:23.317Z,100.00
2023-01-13T23:45:50.086Z,100.00
2023-01-13T23:48:18.633Z,100.00
2023-01-13T23:50:45.141Z,100.00
2023-01-13T23:53:11.589Z,100.00
2023-01-13T23:55:40.637Z,100.00
2023-01-13T23:58:07.120Z,100.00
